createdAt,value
2019-01-27T00:00:47.515Z,992.59
2019-01-27T00:01:47.546Z,992.60
2019-01-27T00:02:47.575Z,992.64
2019-01-27T00:03:47.603Z,992.66
2019-01-27T00:04:47.631Z,992.69
2019-01-27T00:05:47.665Z,992.66
2019-01-27T00:06:47.691Z,992.58
2019-01-27T00:07:47.720Z,992.64
2019-01-27T00:08:47.747Z,992.63
2019-01-27T00:09:47.775Z,992.63
2019-01-27T00:10:47.807Z,992.55
2019-01-27T00:11:47.839Z,992.61
2019-01-27T00:12:47.869Z,992.59
2019-01-27T00:13:47.893Z,992.58
2019-01-27T00:14:47.921Z,992.63
2019-01-27T00:15:47.950Z,992.59
2019-01-27T00:16:47.979Z,992.56
2019-01-27T00:17:48.009Z,992.63
2019-01-27T00:18:48.039Z,992.57
2019-01-27T00:19:48.069Z,992.57
2019-01-27T00:20:48.093Z,992.58
2019-01-27T00:21:48.125Z,992.47
2019-01-27T00:22:48.153Z,992.51
2019-01-27T00:23:48.182Z,992.49
2019-01-27T00:24:48.214Z,992.44
2019-01-27T00:25:48.239Z,992.51
2019-01-27T00:26:48.269Z,992.47
2019-01-27T00:27:48.300Z,992.50
2019-01-27T00:28:48.324Z,992.47
2019-01-27T00:29:48.355Z,992.37
2019-01-27T00:30:48.405Z,992.38
2019-01-27T00:31:48.414Z,992.38
2019-01-27T00:32:48.440Z,992.38
2019-01-27T00:33:48.470Z,992.31
2019-01-27T00:34:48.506Z,992.31
2019-01-27T00:35:48.530Z,992.28
2019-01-27T00:36:48.555Z,992.28
2019-01-27T00:37:48.584Z,992.29
2019-01-27T00:38:48.617Z,992.24
2019-01-27T00:39:48.650Z,992.29
2019-01-27T00:40:48.672Z,992.25
2019-01-27T00:41:48.702Z,992.23
2019-01-27T00:42:48.731Z,992.23
2019-01-27T00:43:48.758Z,992.22
2019-01-27T00:44:48.788Z,992.20
2019-01-27T00:45:48.816Z,992.26
2019-01-27T00:46:48.846Z,992.19
2019-01-27T00:47:48.875Z,992.23
2019-01-27T00:48:48.906Z,992.13
2019-01-27T00:49:48.942Z,992.14
2019-01-27T00:50:48.961Z,992.17
2019-01-27T00:51:48.991Z,992.14
2019-01-27T00:52:49.025Z,992.15
2019-01-27T00:53:49.048Z,992.08
2019-01-27T00:54:49.075Z,992.10
2019-01-27T00:55:49.105Z,992.12
2019-01-27T00:56:49.133Z,992.08
2019-01-27T00:57:49.162Z,992.04
2019-01-27T00:58:49.191Z,992.05
2019-01-27T00:59:49.221Z,992.02
2019-01-27T01:00:49.250Z,992.00
2019-01-27T01:01:49.302Z,991.99
2019-01-27T01:02:49.308Z,991.97
2019-01-27T01:03:49.337Z,992.00
2019-01-27T01:04:49.364Z,991.99
2019-01-27T01:05:49.398Z,992.01
2019-01-27T01:06:49.425Z,992.04
2019-01-27T01:07:49.450Z,992.03
2019-01-27T01:08:49.481Z,991.99
2019-01-27T01:09:49.527Z,991.92
2019-01-27T01:10:49.536Z,991.97
2019-01-27T01:11:49.566Z,991.90
2019-01-27T01:12:49.595Z,991.96
2019-01-27T01:13:49.624Z,991.87
2019-01-27T01:14:49.656Z,991.86
2019-01-27T01:15:49.682Z,991.89
2019-01-27T01:16:49.711Z,991.84
2019-01-27T01:17:49.740Z,991.80
2019-01-27T01:18:49.768Z,991.79
2019-01-27T01:21:30.556Z,991.82
2019-01-27T01:22:30.539Z,991.76
2019-01-27T01:24:32.545Z,991.64
2019-01-27T01:25:32.603Z,991.72
2019-01-27T01:27:34.603Z,991.70
2019-01-27T01:28:34.606Z,991.69
2019-01-27T01:30:36.623Z,991.71
2019-01-27T01:31:36.639Z,991.62
2019-01-27T01:33:38.650Z,991.67
2019-01-27T01:34:38.675Z,991.64
2019-01-27T01:36:40.679Z,991.64
2019-01-27T01:37:40.704Z,991.61
2019-01-27T01:39:42.709Z,991.49
2019-01-27T01:40:42.736Z,991.46
2019-01-27T01:42:44.770Z,991.45
2019-01-27T01:43:44.765Z,991.33
2019-01-27T01:45:36.893Z,991.29
2019-01-27T01:46:36.918Z,991.29
2019-01-27T01:48:38.926Z,991.21
2019-01-27T01:49:38.950Z,991.16
2019-01-27T01:51:30.888Z,991.16
2019-01-27T01:52:30.915Z,991.17
2019-01-27T01:54:32.923Z,991.07
2019-01-27T01:55:32.948Z,991.10
2019-01-27T01:57:34.971Z,991.00
2019-01-27T01:58:34.979Z,991.00
2019-01-27T02:00:36.982Z,991.00
2019-01-27T02:01:37.006Z,990.93
2019-01-27T02:03:39.011Z,990.90
2019-01-27T02:04:39.036Z,990.93
2019-01-27T02:06:41.044Z,990.89
2019-01-27T02:07:41.069Z,990.85
2019-01-27T02:09:43.071Z,990.82
2019-01-27T02:10:43.098Z,990.81
2019-01-27T02:12:45.711Z,990.81
2019-01-27T02:13:45.327Z,990.75
2019-01-27T02:15:47.332Z,990.70
2019-01-27T02:16:47.355Z,990.67
2019-01-27T02:18:49.364Z,990.65
2019-01-27T02:19:49.393Z,990.59
2019-01-27T02:21:41.324Z,990.63
2019-01-27T02:22:41.345Z,990.54
2019-01-27T02:24:43.352Z,990.51
2019-01-27T02:25:43.380Z,990.50
2019-01-27T02:27:45.400Z,990.51
2019-01-27T02:28:45.406Z,990.45
2019-01-27T02:30:47.411Z,990.44
2019-01-27T02:31:54.594Z,990.36
2019-01-27T02:33:51.474Z,990.36
2019-01-27T02:34:51.485Z,990.37
2019-01-27T02:36:55.511Z,990.34
2019-01-27T02:37:55.532Z,990.28
2019-01-27T02:39:59.553Z,990.24
2019-01-27T02:40:59.576Z,990.28
2019-01-27T02:42:52.535Z,990.19
2019-01-27T02:43:52.543Z,990.19
2019-01-27T02:45:56.575Z,990.07
2019-01-27T02:46:56.591Z,990.15
2019-01-27T02:49:00.622Z,990.10
2019-01-27T02:50:00.646Z,990.06
2019-01-27T02:52:04.676Z,989.97
2019-01-27T02:53:04.692Z,990.07
2019-01-27T02:55:08.722Z,989.86
2019-01-27T02:56:08.741Z,989.82
2019-01-27T02:58:53.000Z,989.82
2019-01-27T02:59:12.796Z,989.85
2019-01-27T03:01:05.928Z,989.75
2019-01-27T03:02:05.955Z,989.76
2019-01-27T03:04:09.978Z,989.72
2019-01-27T03:05:10.003Z,989.70
2019-01-27T03:07:14.027Z,989.60
2019-01-27T03:08:14.059Z,989.57
2019-01-27T03:10:18.077Z,989.59
2019-01-27T03:11:18.098Z,989.51
2019-01-27T03:13:22.137Z,989.49
2019-01-27T03:14:22.146Z,989.48
2019-01-27T03:16:26.166Z,989.43
2019-01-27T03:17:26.190Z,989.37
2019-01-27T03:19:30.212Z,989.40
2019-01-27T03:20:30.235Z,989.41
2019-01-27T03:22:23.180Z,989.38
2019-01-27T03:23:23.199Z,989.37
2019-01-27T03:25:27.228Z,989.38
2019-01-27T03:26:27.251Z,989.36
2019-01-27T03:28:31.290Z,989.38
2019-01-27T03:29:31.299Z,989.39
2019-01-27T03:31:35.323Z,989.39
2019-01-27T03:32:35.366Z,989.33
2019-01-27T03:34:39.371Z,989.33
2019-01-27T03:35:39.396Z,989.26
2019-01-27T03:37:43.414Z,989.32
2019-01-27T03:38:43.443Z,989.34
2019-01-27T03:40:48.053Z,989.25
2019-01-27T03:41:47.690Z,989.24
2019-01-27T03:43:51.708Z,989.15
2019-01-27T03:44:51.731Z,989.14
2019-01-27T03:46:55.758Z,989.14
2019-01-27T03:47:55.781Z,989.18
2019-01-27T03:49:59.802Z,989.06
2019-01-27T03:50:59.827Z,989.05
2019-01-27T03:52:52.770Z,989.00
2019-01-27T03:53:52.795Z,988.92
2019-01-27T03:55:56.834Z,988.94
2019-01-27T03:56:56.841Z,988.92
2019-01-27T03:59:00.862Z,988.90
2019-01-27T04:00:00.886Z,988.85
2019-01-27T04:02:04.909Z,988.76
2019-01-27T04:03:04.930Z,988.79
2019-01-27T04:05:09.007Z,988.76
2019-01-27T04:06:08.977Z,988.76
2019-01-27T04:08:13.008Z,988.68
2019-01-27T04:09:13.025Z,988.67
2019-01-27T04:11:17.063Z,988.68
2019-01-27T04:12:17.070Z,988.63
2019-01-27T04:14:21.118Z,988.62
2019-01-27T04:15:21.119Z,988.58
2019-01-27T04:17:25.144Z,988.62
2019-01-27T04:18:25.165Z,988.59
2019-01-27T04:20:29.191Z,988.54
2019-01-27T04:21:29.210Z,988.49
2019-01-27T04:23:33.233Z,988.49
2019-01-27T04:24:33.255Z,988.45
2019-01-27T04:26:37.280Z,988.47
2019-01-27T04:27:37.301Z,988.44
2019-01-27T04:29:41.328Z,988.33
2019-01-27T04:30:41.351Z,988.34
2019-01-27T04:32:34.298Z,988.34
2019-01-27T04:33:34.326Z,988.36
2019-01-27T04:35:38.343Z,988.34
2019-01-27T04:36:38.368Z,988.44
2019-01-27T04:38:42.391Z,988.31
2019-01-27T04:39:42.417Z,988.27
2019-01-27T04:41:46.471Z,988.32
2019-01-27T04:42:46.462Z,988.28
2019-01-27T04:44:50.487Z,988.20
2019-01-27T04:45:50.512Z,988.17
2019-01-27T04:47:55.043Z,988.19
2019-01-27T04:48:54.563Z,988.24
2019-01-27T04:50:58.584Z,988.10
2019-01-27T04:51:58.608Z,988.02
2019-01-27T04:54:02.631Z,988.16
2019-01-27T04:55:02.658Z,988.11
2019-01-27T04:57:06.685Z,988.10
2019-01-27T04:58:06.709Z,988.12
2019-01-27T05:00:10.731Z,988.05
2019-01-27T05:01:10.754Z,988.02
2019-01-27T05:03:14.778Z,987.99
2019-01-27T05:04:16.393Z,987.97
2019-01-27T05:06:18.823Z,987.96
2019-01-27T05:07:18.850Z,987.96
2019-01-27T05:09:22.876Z,987.95
2019-01-27T05:10:22.892Z,987.94
2019-01-27T05:12:15.837Z,987.86
2019-01-27T05:13:15.860Z,987.79
2019-01-27T05:15:19.882Z,987.83
2019-01-27T05:16:19.909Z,987.81
2019-01-27T05:18:23.935Z,987.72
2019-01-27T05:19:23.965Z,987.73
2019-01-27T05:21:27.982Z,987.67
2019-01-27T05:22:28.006Z,987.77
2019-01-27T05:24:32.031Z,987.59
2019-01-27T05:25:32.052Z,987.57
2019-01-27T05:27:36.073Z,987.59
2019-01-27T05:28:36.107Z,987.60
2019-01-27T05:30:40.121Z,987.58
2019-01-27T05:31:40.142Z,987.58
2019-01-27T05:33:44.185Z,987.53
2019-01-27T05:34:44.191Z,987.51
2019-01-27T05:36:48.213Z,987.52
2019-01-27T05:37:48.243Z,987.47
2019-01-27T05:39:52.330Z,987.47
2019-01-27T05:40:52.292Z,987.36
2019-01-27T05:42:45.236Z,987.40
2019-01-27T05:43:45.256Z,987.35
2019-01-27T05:45:49.640Z,987.37
2019-01-27T05:46:49.299Z,987.30
2019-01-27T05:47:49.332Z,987.39
2019-01-27T05:48:49.359Z,987.39
2019-01-27T05:49:49.386Z,987.36
2019-01-27T05:50:49.416Z,987.34
2019-01-27T05:51:49.443Z,987.35
2019-01-27T05:52:49.470Z,987.30
2019-01-27T05:53:49.499Z,987.31
2019-01-27T05:54:49.529Z,987.27
2019-01-27T05:55:49.567Z,987.24
2019-01-27T05:56:56.313Z,987.26
2019-01-27T05:57:49.617Z,987.27
2019-01-27T05:58:49.643Z,987.28
2019-01-27T05:59:49.676Z,987.29
2019-01-27T06:00:49.700Z,987.28
2019-01-27T06:01:49.729Z,987.25
2019-01-27T06:02:49.757Z,987.16
2019-01-27T06:03:49.784Z,987.20
2019-01-27T06:04:49.815Z,987.22
2019-01-27T06:05:49.844Z,987.20
2019-01-27T06:06:49.872Z,987.18
2019-01-27T06:07:49.900Z,987.13
2019-01-27T06:08:49.936Z,987.19
2019-01-27T06:09:49.957Z,987.15
2019-01-27T06:10:49.985Z,987.10
2019-01-27T06:11:50.020Z,987.10
2019-01-27T06:12:50.047Z,987.05
2019-01-27T06:13:50.070Z,987.08
2019-01-27T06:14:50.102Z,987.10
2019-01-27T06:15:50.143Z,987.05
2019-01-27T06:16:50.158Z,986.96
2019-01-27T06:17:50.186Z,986.91
2019-01-27T06:18:50.275Z,986.89
2019-01-27T06:19:50.243Z,986.93
2019-01-27T06:20:50.273Z,986.90
2019-01-27T06:21:50.308Z,986.92
2019-01-27T06:22:50.330Z,986.91
2019-01-27T06:23:50.359Z,986.91
2019-01-27T06:24:50.399Z,986.94
2019-01-27T06:25:50.416Z,986.95
2019-01-27T06:26:50.444Z,986.90
2019-01-27T06:27:50.473Z,986.88
2019-01-27T06:28:50.501Z,986.86
2019-01-27T06:29:50.532Z,986.80
2019-01-27T06:30:50.559Z,986.81
2019-01-27T06:31:50.588Z,986.77
2019-01-27T06:32:50.617Z,986.77
2019-01-27T06:33:50.647Z,986.76
2019-01-27T06:34:50.676Z,986.72
2019-01-27T06:35:50.704Z,986.77
2019-01-27T06:36:50.734Z,986.71
2019-01-27T06:37:50.761Z,986.77
2019-01-27T06:38:50.792Z,986.76
2019-01-27T06:39:50.819Z,986.74
2019-01-27T06:40:50.849Z,986.74
2019-01-27T06:41:50.877Z,986.74
2019-01-27T06:42:50.905Z,986.71
2019-01-27T06:43:50.934Z,986.75
2019-01-27T06:44:50.965Z,986.68
2019-01-27T06:45:50.999Z,986.71
2019-01-27T06:46:51.028Z,986.71
2019-01-27T06:47:51.052Z,986.67
2019-01-27T06:48:51.080Z,986.69
2019-01-27T06:49:51.107Z,986.65
2019-01-27T06:50:51.136Z,986.64
2019-01-27T06:51:51.164Z,986.60
2019-01-27T06:52:51.193Z,986.62
2019-01-27T06:53:51.223Z,986.66
2019-01-27T06:54:51.250Z,986.64
2019-01-27T06:55:51.282Z,986.62
2019-01-27T06:56:51.310Z,986.70
2019-01-27T06:57:51.342Z,986.65
2019-01-27T06:58:51.366Z,986.64
2019-01-27T06:59:51.394Z,986.61
2019-01-27T07:00:51.425Z,986.54
2019-01-27T07:01:51.452Z,986.58
2019-01-27T07:02:51.481Z,986.48
2019-01-27T07:03:51.514Z,986.44
2019-01-27T07:04:51.538Z,986.47
2019-01-27T07:05:51.571Z,986.45
2019-01-27T07:06:51.596Z,986.48
2019-01-27T07:07:51.624Z,986.48
2019-01-27T07:08:51.653Z,986.45
2019-01-27T07:09:51.684Z,986.45
2019-01-27T07:10:51.712Z,986.42
2019-01-27T07:11:51.763Z,986.36
2019-01-27T07:12:51.770Z,986.36
2019-01-27T07:13:51.800Z,986.33
2019-01-27T07:14:51.827Z,986.37
2019-01-27T07:15:51.858Z,986.34
2019-01-27T07:16:51.886Z,986.39
2019-01-27T07:17:51.915Z,986.36
2019-01-27T07:18:51.943Z,986.36
2019-01-27T07:19:51.975Z,986.32
2019-01-27T07:20:52.001Z,986.28
2019-01-27T07:21:52.031Z,986.33
2019-01-27T07:22:52.058Z,986.25
2019-01-27T07:23:52.090Z,986.28
2019-01-27T07:24:52.116Z,986.31
2019-01-27T07:25:52.149Z,986.31
2019-01-27T07:26:52.173Z,986.26
2019-01-27T07:27:52.201Z,986.27
2019-01-27T07:28:52.232Z,986.27
2019-01-27T07:29:52.259Z,986.35
2019-01-27T07:30:52.290Z,986.33
2019-01-27T07:31:52.318Z,986.30
2019-01-27T07:32:52.349Z,986.26
2019-01-27T07:33:52.376Z,986.28
2019-01-27T07:34:52.408Z,986.22
2019-01-27T07:35:52.433Z,986.17
2019-01-27T07:36:52.463Z,986.18
2019-01-27T07:37:52.490Z,986.24
2019-01-27T07:38:52.518Z,986.19
2019-01-27T07:39:53.835Z,986.17
2019-01-27T07:40:52.583Z,986.15
2019-01-27T07:41:52.608Z,986.14
2019-01-27T07:42:52.635Z,986.17
2019-01-27T07:43:52.663Z,986.13
2019-01-27T07:44:52.693Z,986.10
2019-01-27T07:45:52.720Z,986.13
2019-01-27T07:46:52.749Z,986.13
2019-01-27T07:47:52.778Z,986.10
2019-01-27T07:48:52.808Z,986.08
2019-01-27T07:49:52.835Z,986.06
2019-01-27T07:50:52.867Z,986.07
2019-01-27T07:51:52.894Z,986.06
2019-01-27T07:52:52.921Z,986.02
2019-01-27T07:53:52.953Z,985.97
2019-01-27T07:54:52.980Z,985.95
2019-01-27T07:55:53.010Z,985.94
2019-01-27T07:56:53.036Z,985.94
2019-01-27T07:57:53.067Z,985.90
2019-01-27T07:58:53.095Z,985.90
2019-01-27T07:59:53.124Z,985.88
2019-01-27T08:00:53.151Z,985.87
2019-01-27T08:01:53.181Z,985.89
2019-01-27T08:02:53.212Z,985.87
2019-01-27T08:03:53.238Z,985.85
2019-01-27T08:04:53.267Z,985.81
2019-01-27T08:05:53.296Z,985.81
2019-01-27T08:06:53.324Z,985.81
2019-01-27T08:07:53.355Z,985.84
2019-01-27T08:08:53.387Z,985.85
2019-01-27T08:09:53.410Z,985.88
2019-01-27T08:10:53.439Z,985.90
2019-01-27T08:11:53.468Z,985.86
2019-01-27T08:12:53.498Z,985.80
2019-01-27T08:13:53.525Z,985.75
2019-01-27T08:14:53.554Z,985.83
2019-01-27T08:15:53.583Z,985.79
2019-01-27T08:16:53.612Z,985.80
2019-01-27T08:17:53.642Z,985.80
2019-01-27T08:18:53.679Z,985.78
2019-01-27T08:19:53.699Z,985.72
2019-01-27T08:20:53.728Z,985.75
2019-01-27T08:21:53.758Z,985.73
2019-01-27T08:22:53.784Z,985.74
2019-01-27T08:23:53.813Z,985.78
2019-01-27T08:24:53.847Z,985.72
2019-01-27T08:25:53.875Z,985.75
2019-01-27T08:26:53.902Z,985.65
2019-01-27T08:27:53.933Z,985.63
2019-01-27T08:28:53.957Z,985.63
2019-01-27T08:29:53.988Z,985.63
2019-01-27T08:30:54.016Z,985.66
2019-01-27T08:31:54.050Z,985.69
2019-01-27T08:32:54.074Z,985.64
2019-01-27T08:33:54.103Z,985.66
2019-01-27T08:34:54.131Z,985.63
2019-01-27T08:35:54.165Z,985.61
2019-01-27T08:36:54.188Z,985.59
2019-01-27T08:37:54.219Z,985.58
2019-01-27T08:38:54.246Z,985.61
2019-01-27T08:39:54.279Z,985.53
2019-01-27T08:40:54.305Z,985.51
2019-01-27T08:41:54.335Z,985.53
2019-01-27T08:42:54.363Z,985.58
2019-01-27T08:43:54.392Z,985.58
2019-01-27T08:44:54.420Z,985.57
2019-01-27T08:45:54.449Z,985.57
2019-01-27T08:46:54.479Z,985.58
2019-01-27T08:47:54.507Z,985.55
2019-01-27T08:48:54.537Z,985.47
2019-01-27T08:49:54.573Z,985.50
2019-01-27T08:50:54.594Z,985.51
2019-01-27T08:51:54.622Z,985.59
2019-01-27T08:52:54.653Z,985.57
2019-01-27T08:53:54.683Z,985.58
2019-01-27T08:54:54.709Z,985.63
2019-01-27T08:55:54.737Z,985.53
2019-01-27T08:56:54.767Z,985.50
2019-01-27T08:57:54.796Z,985.46
2019-01-27T08:58:54.826Z,985.54
2019-01-27T08:59:54.853Z,985.58
2019-01-27T09:00:54.883Z,985.59
2019-01-27T09:01:54.916Z,985.50
2019-01-27T09:02:54.940Z,985.43
2019-01-27T09:03:54.968Z,985.47
2019-01-27T09:04:55.001Z,985.49
2019-01-27T09:05:55.026Z,985.51
2019-01-27T09:06:55.054Z,985.48
2019-01-27T09:07:55.085Z,985.49
2019-01-27T09:08:55.114Z,985.39
2019-01-27T09:09:55.142Z,985.38
2019-01-27T09:10:55.171Z,985.35
2019-01-27T09:11:55.198Z,985.35
2019-01-27T09:12:55.227Z,985.37
2019-01-27T09:13:55.257Z,985.30
2019-01-27T09:14:55.288Z,985.31
2019-01-27T09:15:55.315Z,985.29
2019-01-27T09:16:55.343Z,985.27
2019-01-27T09:17:55.372Z,985.16
2019-01-27T09:18:55.400Z,985.22
2019-01-27T09:19:55.428Z,985.21
2019-01-27T09:20:55.458Z,985.21
2019-01-27T09:21:55.492Z,985.25
2019-01-27T09:22:55.516Z,985.21
2019-01-27T09:23:55.546Z,985.21
2019-01-27T09:24:55.574Z,985.22
2019-01-27T09:25:55.604Z,985.21
2019-01-27T09:26:55.633Z,985.16
2019-01-27T09:27:55.660Z,985.14
2019-01-27T09:28:55.690Z,985.15
2019-01-27T09:29:55.719Z,985.14
2019-01-27T09:30:55.746Z,985.12
2019-01-27T09:31:55.775Z,985.10
2019-01-27T09:32:55.806Z,985.14
2019-01-27T09:33:55.835Z,985.16
2019-01-27T09:34:55.863Z,985.11
2019-01-27T09:35:55.893Z,985.10
2019-01-27T09:36:55.921Z,985.15
2019-01-27T09:37:55.951Z,985.08
2019-01-27T09:38:55.981Z,985.08
2019-01-27T09:39:56.007Z,985.05
2019-01-27T09:40:56.037Z,985.16
2019-01-27T09:41:56.066Z,985.11
2019-01-27T09:42:56.093Z,985.06
2019-01-27T09:43:56.127Z,985.08
2019-01-27T09:44:56.152Z,985.11
2019-01-27T09:46:05.287Z,985.06
2019-01-27T09:46:56.214Z,985.09
2019-01-27T09:47:56.240Z,984.99
2019-01-27T09:48:56.270Z,985.00
2019-01-27T09:49:56.300Z,985.03
2019-01-27T09:50:56.327Z,985.09
2019-01-27T09:51:56.358Z,985.04
2019-01-27T09:52:56.386Z,985.04
2019-01-27T09:53:56.414Z,984.94
2019-01-27T09:54:56.444Z,984.88
2019-01-27T09:55:56.473Z,984.96
2019-01-27T09:56:56.503Z,985.05
2019-01-27T09:57:56.532Z,984.97
2019-01-27T09:58:56.560Z,984.94
2019-01-27T09:59:56.589Z,984.92
2019-01-27T10:00:56.618Z,984.91
2019-01-27T10:01:56.648Z,984.83
2019-01-27T10:02:56.676Z,984.81
2019-01-27T10:03:56.705Z,984.81
2019-01-27T10:04:56.734Z,984.83
2019-01-27T10:05:56.765Z,984.87
2019-01-27T10:06:56.799Z,984.81
2019-01-27T10:07:56.822Z,984.82
2019-01-27T10:08:56.851Z,984.81
2019-01-27T10:09:56.886Z,984.82
2019-01-27T10:10:56.915Z,984.78
2019-01-27T10:11:56.942Z,984.85
2019-01-27T10:12:56.969Z,984.78
2019-01-27T10:13:56.999Z,984.79
2019-01-27T10:14:57.026Z,984.84
2019-01-27T10:15:57.057Z,984.80
2019-01-27T10:16:57.085Z,984.75
2019-01-27T10:17:57.115Z,984.79
2019-01-27T10:18:57.146Z,984.76
2019-01-27T10:19:57.173Z,984.79
2019-01-27T10:20:57.201Z,984.78
2019-01-27T10:21:57.234Z,984.79
2019-01-27T10:22:57.261Z,984.86
2019-01-27T10:23:57.290Z,984.75
2019-01-27T10:24:57.320Z,984.72
2019-01-27T10:25:57.349Z,984.73
2019-01-27T10:26:57.378Z,984.65
2019-01-27T10:27:57.407Z,984.64
2019-01-27T10:28:57.442Z,984.64
2019-01-27T10:29:57.470Z,984.64
2019-01-27T10:30:57.496Z,984.57
2019-01-27T10:31:57.526Z,984.60
2019-01-27T10:32:57.557Z,984.64
2019-01-27T10:33:57.588Z,984.59
2019-01-27T10:34:57.613Z,984.58
2019-01-27T10:35:57.644Z,984.51
2019-01-27T10:36:57.673Z,984.55
2019-01-27T10:37:57.701Z,984.57
2019-01-27T10:38:57.734Z,984.59
2019-01-27T10:39:57.765Z,984.63
2019-01-27T10:40:58.320Z,984.59
2019-01-27T10:41:57.821Z,984.64
2019-01-27T10:42:57.851Z,984.61
2019-01-27T10:43:57.879Z,984.59
2019-01-27T10:44:57.911Z,984.58
2019-01-27T10:45:57.940Z,984.52
2019-01-27T10:46:57.968Z,984.53
2019-01-27T10:47:58.001Z,984.50
2019-01-27T10:48:58.028Z,984.55
2019-01-27T10:49:58.354Z,984.45
2019-01-27T10:50:58.088Z,984.43
2019-01-27T10:51:58.117Z,984.48
2019-01-27T10:52:58.150Z,984.47
2019-01-27T10:53:58.177Z,984.55
2019-01-27T10:54:58.207Z,984.42
2019-01-27T10:55:58.237Z,984.46
2019-01-27T10:56:58.281Z,984.43
2019-01-27T10:57:58.308Z,984.43
2019-01-27T10:58:58.324Z,984.33
2019-01-27T10:59:58.356Z,984.35
2019-01-27T11:00:58.386Z,984.38
2019-01-27T11:01:58.416Z,984.25
2019-01-27T11:02:58.445Z,984.35
2019-01-27T11:03:58.475Z,984.48
2019-01-27T11:04:58.506Z,984.25
2019-01-27T11:05:58.536Z,984.36
2019-01-27T11:06:58.567Z,984.21
2019-01-27T11:07:58.664Z,984.24
2019-01-27T11:08:58.626Z,984.13
2019-01-27T11:09:58.655Z,984.18
2019-01-27T11:10:58.683Z,984.19
2019-01-27T11:11:58.714Z,984.17
2019-01-27T11:12:58.745Z,984.17
2019-01-27T11:13:58.775Z,984.17
2019-01-27T11:14:58.804Z,984.25
2019-01-27T11:15:58.914Z,984.17
2019-01-27T11:16:58.866Z,984.19
2019-01-27T11:17:58.895Z,984.16
2019-01-27T11:18:58.924Z,984.16
2019-01-27T11:19:58.953Z,984.18
2019-01-27T11:20:58.985Z,984.21
2019-01-27T11:21:59.024Z,984.30
2019-01-27T11:22:59.094Z,984.17
2019-01-27T11:23:59.155Z,984.18
2019-01-27T11:24:59.155Z,984.17
2019-01-27T11:26:00.794Z,984.12
2019-01-27T11:26:59.893Z,984.09
2019-01-27T11:27:59.192Z,984.02
2019-01-27T11:28:59.222Z,983.99
2019-01-27T11:29:59.253Z,983.98
2019-01-27T11:30:59.281Z,983.93
2019-01-27T11:31:59.311Z,983.90
2019-01-27T11:32:59.341Z,983.91
2019-01-27T11:33:59.372Z,983.96
2019-01-27T11:34:59.400Z,983.94
2019-01-27T11:35:59.429Z,983.89
2019-01-27T11:36:59.461Z,983.84
2019-01-27T11:37:59.492Z,983.89
2019-01-27T11:38:59.519Z,983.90
2019-01-27T11:39:59.551Z,983.81
2019-01-27T11:40:59.584Z,983.79
2019-01-27T11:41:59.609Z,983.82
2019-01-27T11:42:59.639Z,983.74
2019-01-27T11:43:59.672Z,983.73
2019-01-27T11:44:59.712Z,983.66
2019-01-27T11:45:59.743Z,983.64
2019-01-27T11:46:59.756Z,983.67
2019-01-27T11:47:59.787Z,983.67
2019-01-27T11:48:59.822Z,983.63
2019-01-27T11:50:14.771Z,983.73
2019-01-27T11:50:59.876Z,983.68
2019-01-27T11:51:59.908Z,983.61
2019-01-27T11:52:59.936Z,983.57
2019-01-27T11:53:59.965Z,983.64
2019-01-27T11:54:59.995Z,983.52
2019-01-27T11:56:00.024Z,983.60
2019-01-27T11:57:00.058Z,983.60
2019-01-27T11:58:00.085Z,983.61
2019-01-27T11:59:00.112Z,983.59
2019-01-27T12:00:00.172Z,983.54
2019-01-27T12:01:00.175Z,983.53
2019-01-27T12:02:00.203Z,983.53
2019-01-27T12:03:00.236Z,983.58
2019-01-27T12:04:00.267Z,983.58
2019-01-27T12:05:00.292Z,983.51
2019-01-27T12:06:00.323Z,983.49
2019-01-27T12:07:00.352Z,983.51
2019-01-27T12:08:00.382Z,983.51
2019-01-27T12:09:00.411Z,983.46
2019-01-27T12:10:00.442Z,983.49
2019-01-27T12:12:43.211Z,983.44
2019-01-27T12:13:43.232Z,983.37
2019-01-27T12:15:47.263Z,983.40
2019-01-27T12:16:47.288Z,983.34
2019-01-27T12:18:51.313Z,983.39
2019-01-27T12:19:51.347Z,983.42
2019-01-27T12:21:55.393Z,983.41
2019-01-27T12:24:19.414Z,983.42
2019-01-27T12:25:19.455Z,983.40
2019-01-27T12:27:23.497Z,983.32
2019-01-27T12:28:23.490Z,983.37
2019-01-27T12:30:27.517Z,983.33
2019-01-27T12:31:27.544Z,983.32
2019-01-27T12:33:31.569Z,983.32
2019-01-27T12:34:31.590Z,983.32
2019-01-27T12:36:35.615Z,983.17
2019-01-27T12:37:35.639Z,983.25
2019-01-27T12:39:39.682Z,983.24
2019-01-27T12:40:39.690Z,983.25
2019-01-27T12:42:32.638Z,983.23
2019-01-27T12:46:39.435Z,983.14
2019-01-27T12:47:39.429Z,983.15
2019-01-27T12:48:39.457Z,983.15
2019-01-27T12:49:39.489Z,983.18
2019-01-27T12:50:39.514Z,983.15
2019-01-27T12:51:39.552Z,983.12
2019-01-27T12:52:39.573Z,983.09
2019-01-27T12:53:39.608Z,983.01
2019-01-27T12:54:39.633Z,983.08
2019-01-27T12:56:07.356Z,983.01
2019-01-27T12:56:39.745Z,983.09
2019-01-27T12:57:39.726Z,983.01
2019-01-27T12:58:39.749Z,983.03
2019-01-27T12:59:39.780Z,983.05
2019-01-27T13:00:39.811Z,983.00
2019-01-27T13:01:39.838Z,983.02
2019-01-27T13:02:39.871Z,983.01
2019-01-27T13:03:39.899Z,982.99
2019-01-27T13:04:39.928Z,983.04
2019-01-27T13:05:39.958Z,983.00
2019-01-27T13:06:41.110Z,983.01
2019-01-27T13:07:40.018Z,983.05
2019-01-27T13:08:40.047Z,983.00
2019-01-27T13:09:40.077Z,983.03
2019-01-27T13:10:40.105Z,983.01
2019-01-27T13:11:40.148Z,982.98
2019-01-27T13:12:40.165Z,982.99
2019-01-27T13:13:40.196Z,982.96
2019-01-27T13:14:40.226Z,982.93
2019-01-27T13:15:40.265Z,982.93
2019-01-27T13:16:40.286Z,982.94
2019-01-27T13:17:40.320Z,982.91
2019-01-27T13:18:40.344Z,982.90
2019-01-27T13:19:40.374Z,982.90
2019-01-27T13:20:40.402Z,982.90
2019-01-27T13:21:40.433Z,982.90
2019-01-27T13:22:40.486Z,982.86
2019-01-27T13:23:40.493Z,982.84
2019-01-27T13:24:40.524Z,982.84
2019-01-27T13:25:40.553Z,982.88
2019-01-27T13:26:40.582Z,982.88
2019-01-27T13:27:40.611Z,982.86
2019-01-27T13:28:40.641Z,982.85
2019-01-27T13:29:40.672Z,982.85
2019-01-27T13:30:40.702Z,982.84
2019-01-27T13:31:40.731Z,982.83
2019-01-27T13:32:40.768Z,982.82
2019-01-27T13:33:40.789Z,982.83
2019-01-27T13:34:40.819Z,982.81
2019-01-27T13:35:40.850Z,982.79
2019-01-27T13:36:40.883Z,982.75
2019-01-27T13:37:40.994Z,982.76
2019-01-27T13:38:40.938Z,982.74
2019-01-27T13:39:40.967Z,982.69
2019-01-27T13:40:41.020Z,982.77
2019-01-27T13:43:23.792Z,982.69
2019-01-27T13:44:23.803Z,982.66
2019-01-27T13:46:27.826Z,982.69
2019-01-27T13:47:28.922Z,982.65
2019-01-27T13:49:31.899Z,982.66
2019-01-27T13:50:31.906Z,982.57
2019-01-27T13:52:24.847Z,982.61
2019-01-27T13:53:24.874Z,982.63
2019-01-27T13:55:28.898Z,982.52
2019-01-27T13:56:28.924Z,982.55
2019-01-27T13:58:32.950Z,982.54
2019-01-27T13:59:32.976Z,982.54
2019-01-27T14:01:37.015Z,982.57
2019-01-27T14:02:37.044Z,982.53
2019-01-27T14:04:48.303Z,982.52
2019-01-27T14:05:41.095Z,982.48
2019-01-27T14:07:45.126Z,982.52
2019-01-27T14:08:45.186Z,982.46
2019-01-27T14:10:49.180Z,982.43
2019-01-27T14:11:49.202Z,982.47
2019-01-27T14:13:53.233Z,982.45
2019-01-27T14:14:53.265Z,982.41
2019-01-27T14:16:57.286Z,982.39
2019-01-27T14:17:57.315Z,982.36
2019-01-27T14:20:01.336Z,982.28
2019-01-27T14:21:01.371Z,982.25
2019-01-27T14:22:54.312Z,982.28
2019-01-27T14:23:54.343Z,982.30
2019-01-27T14:25:58.368Z,982.30
2019-01-27T14:26:58.394Z,982.30
2019-01-27T14:29:02.419Z,982.28
2019-01-27T14:30:02.446Z,982.26
2019-01-27T14:32:06.494Z,982.27
2019-01-27T14:33:06.522Z,982.25
2019-01-27T14:35:08.640Z,982.25
2019-01-27T14:36:08.666Z,982.27